createdAt,value
2018-07-02T00:00:56.807Z,41.83
2018-07-02T00:01:56.828Z,41.76
2018-07-02T00:02:56.824Z,41.95
2018-07-02T00:03:56.823Z,41.86
2018-07-02T00:04:56.825Z,41.86
2018-07-02T00:05:56.522Z,41.76
2018-07-02T00:06:56.564Z,41.95
2018-07-02T00:07:56.849Z,41.83
2018-07-02T00:08:56.810Z,42.41
2018-07-02T00:09:56.573Z,42.70
2018-07-02T00:10:58.360Z,42.80
2018-07-02T00:11:56.544Z,42.80
2018-07-02T00:12:56.611Z,42.70
2018-07-02T00:13:56.845Z,42.50
2018-07-02T00:14:56.855Z,42.22
2018-07-02T00:15:56.847Z,42.41
2018-07-02T00:16:56.834Z,42.70
2018-07-02T00:17:56.356Z,42.60
2018-07-02T00:18:56.849Z,42.99
2018-07-02T00:19:56.602Z,43.28
2018-07-02T00:20:56.855Z,42.70
2018-07-02T00:21:56.856Z,42.89
2018-07-02T00:22:56.850Z,42.50
2018-07-02T00:23:56.838Z,42.41
2018-07-02T00:24:56.841Z,43.28
2018-07-02T00:25:56.609Z,43.37
2018-07-02T00:26:58.367Z,43.47
2018-07-02T00:27:56.829Z,42.99
2018-07-02T00:28:56.867Z,43.28
2018-07-02T00:29:56.812Z,43.85
2018-07-02T00:30:56.818Z,43.37
2018-07-02T00:31:56.833Z,43.74
2018-07-02T00:32:56.853Z,43.66
2018-07-02T00:33:56.813Z,43.57
2018-07-02T00:34:56.832Z,43.37
2018-07-02T00:35:56.832Z,43.45
2018-07-02T00:36:56.613Z,43.45
2018-07-02T00:37:56.849Z,43.54
2018-07-02T00:38:56.837Z,43.64
2018-07-02T00:39:56.857Z,43.93
2018-07-02T00:40:56.583Z,44.41
2018-07-02T00:41:56.590Z,44.12
2018-07-02T00:42:56.576Z,43.95
2018-07-02T00:43:56.547Z,44.12
2018-07-02T00:44:56.857Z,44.12
2018-07-02T00:45:56.828Z,44.89
2018-07-02T00:46:56.857Z,44.72
2018-07-02T00:47:56.857Z,44.51
2018-07-02T00:48:56.627Z,44.51
2018-07-02T00:49:58.356Z,44.41
2018-07-02T00:50:56.567Z,44.31
2018-07-02T00:51:56.861Z,44.31
2018-07-02T00:52:56.824Z,44.31
2018-07-02T00:53:56.627Z,44.31
2018-07-02T00:54:56.825Z,44.41
2018-07-02T00:55:56.627Z,44.41
2018-07-02T00:56:56.857Z,44.70
2018-07-02T00:57:56.863Z,44.89
2018-07-02T00:58:56.843Z,44.79
2018-07-02T00:59:56.850Z,45.18
2018-07-02T01:00:56.625Z,44.60
2018-07-02T01:01:56.141Z,44.58
2018-07-02T01:02:56.819Z,44.96
2018-07-02T01:03:56.847Z,44.51
2018-07-02T01:04:56.602Z,44.31
2018-07-02T01:05:56.927Z,44.31
2018-07-02T01:06:56.866Z,43.84
2018-07-02T01:07:56.869Z,44.22
2018-07-02T01:08:56.862Z,44.79
2018-07-02T01:09:56.349Z,44.70
2018-07-02T01:10:56.605Z,44.99
2018-07-02T01:11:56.863Z,45.08
2018-07-02T01:12:56.875Z,44.79
2018-07-02T01:13:56.863Z,44.87
2018-07-02T01:14:56.902Z,44.87
2018-07-02T01:15:56.835Z,44.87
2018-07-02T01:16:56.854Z,44.68
2018-07-02T01:17:56.861Z,44.96
2018-07-02T01:18:56.845Z,44.96
2018-07-02T01:19:57.184Z,45.06
2018-07-02T01:20:58.829Z,44.89
2018-07-02T01:21:56.870Z,45.54
2018-07-02T01:22:58.439Z,45.73
2018-07-02T01:23:56.873Z,45.92
2018-07-02T01:24:56.873Z,45.35
2018-07-02T01:25:56.885Z,44.99
2018-07-02T01:26:56.850Z,44.79
2018-07-02T01:27:56.888Z,44.96
2018-07-02T01:28:56.608Z,44.68
2018-07-02T01:29:56.878Z,45.06
2018-07-02T01:30:56.857Z,45.06
2018-07-02T01:31:56.874Z,45.15
2018-07-02T01:32:56.879Z,45.45
2018-07-02T01:33:56.871Z,45.54
2018-07-02T01:34:56.874Z,45.54
2018-07-02T01:35:56.369Z,45.15
2018-07-02T01:36:56.847Z,45.15
2018-07-02T01:37:56.602Z,45.15
2018-07-02T01:38:56.854Z,45.45
2018-07-02T01:39:56.608Z,45.35
2018-07-02T01:40:56.885Z,45.25
2018-07-02T01:41:56.879Z,45.45
2018-07-02T01:42:56.541Z,45.15
2018-07-02T01:43:56.595Z,45.54
2018-07-02T01:44:56.326Z,45.71
2018-07-02T01:45:56.883Z,45.90
2018-07-02T01:46:56.826Z,45.64
2018-07-02T01:47:56.871Z,46.19
2018-07-02T01:48:56.885Z,45.92
2018-07-02T01:49:56.880Z,45.83
2018-07-02T01:50:56.880Z,46.12
2018-07-02T01:51:56.892Z,46.21
2018-07-02T01:52:56.893Z,45.92
2018-07-02T01:53:56.840Z,46.21
2018-07-02T01:54:56.851Z,46.00
2018-07-02T01:55:56.684Z,46.00
2018-07-02T01:56:56.338Z,46.28
2018-07-02T01:57:56.847Z,46.00
2018-07-02T01:58:56.865Z,45.61
2018-07-02T01:59:56.867Z,46.12
2018-07-02T02:00:56.845Z,46.09
2018-07-02T02:01:56.861Z,46.09
2018-07-02T02:02:56.632Z,45.61
2018-07-02T02:03:56.603Z,45.83
2018-07-02T02:04:56.660Z,46.00
2018-07-02T02:05:56.575Z,46.09
2018-07-02T02:06:56.130Z,46.09
2018-07-02T02:07:56.600Z,46.00
2018-07-02T02:08:56.869Z,45.90
2018-07-02T02:09:56.862Z,46.67
2018-07-02T02:10:58.421Z,46.86
2018-07-02T02:11:56.868Z,46.38
2018-07-02T02:12:56.661Z,46.67
2018-07-02T02:13:56.834Z,47.25
2018-07-02T02:14:56.873Z,46.96
2018-07-02T02:15:56.851Z,46.96
2018-07-02T02:16:56.887Z,47.05
2018-07-02T02:17:56.852Z,47.34
2018-07-02T02:18:56.851Z,47.72
2018-07-02T02:19:56.846Z,47.99
2018-07-02T02:20:56.852Z,47.41
2018-07-02T02:21:56.666Z,47.51
2018-07-02T02:22:56.893Z,47.89
2018-07-02T02:23:56.867Z,48.18
2018-07-02T02:24:56.868Z,48.47
2018-07-02T02:25:56.855Z,48.09
2018-07-02T02:26:56.858Z,48.47
2018-07-02T02:27:56.875Z,48.09
2018-07-02T02:28:56.854Z,48.09
2018-07-02T02:29:56.877Z,48.38
2018-07-02T02:30:56.851Z,48.47
2018-07-02T02:31:56.870Z,48.47
2018-07-02T02:32:56.729Z,48.47
2018-07-02T02:33:56.850Z,47.89
2018-07-02T02:34:56.647Z,48.47
2018-07-02T02:35:56.857Z,48.57
2018-07-02T02:36:56.915Z,48.76
2018-07-02T02:37:56.875Z,48.95
2018-07-02T02:38:56.671Z,48.95
2018-07-02T02:39:56.627Z,49.24
2018-07-02T02:40:56.653Z,49.12
2018-07-02T02:41:56.833Z,49.43
2018-07-02T02:42:56.953Z,49.69
2018-07-02T02:43:56.855Z,49.62
2018-07-02T02:44:56.377Z,49.50
2018-07-02T02:45:56.571Z,49.82
2018-07-02T02:46:56.883Z,50.08
2018-07-02T02:47:56.888Z,49.98
2018-07-02T02:48:56.858Z,50.27
2018-07-02T02:49:56.882Z,49.98
2018-07-02T02:50:56.862Z,49.69
2018-07-02T02:51:56.698Z,50.29
2018-07-02T02:52:56.855Z,50.46
2018-07-02T02:53:56.886Z,49.60
2018-07-02T02:54:56.962Z,49.69
2018-07-02T02:55:56.895Z,50.27
2018-07-02T02:56:56.164Z,50.27
2018-07-02T02:57:56.703Z,50.27
2018-07-02T02:58:56.877Z,50.17
2018-07-02T02:59:56.880Z,49.98
2018-07-02T03:00:57.224Z,50.27
2018-07-02T03:01:56.191Z,50.46
2018-07-02T03:02:56.691Z,50.17
2018-07-02T03:03:56.924Z,49.82
2018-07-02T03:04:56.665Z,50.37
2018-07-02T03:05:56.907Z,50.08
2018-07-02T03:06:56.909Z,50.56
2018-07-02T03:07:56.402Z,50.75
2018-07-02T03:08:56.670Z,50.75
2018-07-02T03:09:56.695Z,50.84
2018-07-02T03:10:56.886Z,51.51
2018-07-02T03:11:56.867Z,50.75
2018-07-02T03:12:56.884Z,50.84
2018-07-02T03:13:56.890Z,50.37
2018-07-02T03:14:56.869Z,50.75
2018-07-02T03:15:56.676Z,50.84
2018-07-02T03:16:56.167Z,50.75
2018-07-02T03:17:56.707Z,50.84
2018-07-02T03:18:56.741Z,50.65
2018-07-02T03:19:56.665Z,51.61
2018-07-02T03:20:56.916Z,51.87
2018-07-02T03:21:56.910Z,51.32
2018-07-02T03:22:56.909Z,51.90
2018-07-02T03:23:56.866Z,52.00
2018-07-02T03:24:56.882Z,51.87
2018-07-02T03:25:56.919Z,52.26
2018-07-02T03:26:56.928Z,51.87
2018-07-02T03:27:56.869Z,51.90
2018-07-02T03:28:56.892Z,52.19
2018-07-02T03:29:56.390Z,52.19
2018-07-02T03:30:56.938Z,52.00
2018-07-02T03:31:56.919Z,52.28
2018-07-02T03:32:56.871Z,51.87
2018-07-02T03:33:57.396Z,51.87
2018-07-02T03:34:56.876Z,51.87
2018-07-02T03:35:56.900Z,51.30
2018-07-02T03:36:56.918Z,51.49
2018-07-02T03:37:56.143Z,52.28
2018-07-02T03:38:57.325Z,52.07
2018-07-02T03:39:56.450Z,52.28
2018-07-02T03:40:58.804Z,51.71
2018-07-02T03:41:56.693Z,51.71
2018-07-02T03:42:56.896Z,52.19
2018-07-02T03:43:56.946Z,51.87
2018-07-02T03:44:56.691Z,52.07
2018-07-02T03:45:56.682Z,51.30
2018-07-02T03:46:56.873Z,51.90
2018-07-02T03:47:56.948Z,52.28
2018-07-02T03:48:56.916Z,52.00
2018-07-02T03:49:56.924Z,52.26
2018-07-02T03:50:56.390Z,52.26
2018-07-02T03:51:56.945Z,51.71
2018-07-02T03:52:56.852Z,52.16
2018-07-02T03:53:56.875Z,51.68
2018-07-02T03:54:57.074Z,52.38
2018-07-02T03:55:56.918Z,52.55
2018-07-02T03:56:56.931Z,52.45
2018-07-02T03:57:56.379Z,52.74
2018-07-02T03:58:56.900Z,52.93
2018-07-02T03:59:56.897Z,52.83
2018-07-02T04:00:56.903Z,53.12
2018-07-02T04:01:56.902Z,52.64
2018-07-02T04:02:56.982Z,52.74
2018-07-02T04:03:56.882Z,53.22
2018-07-02T04:04:56.899Z,53.12
2018-07-02T04:05:56.886Z,52.83
2018-07-02T04:06:56.426Z,52.74
2018-07-02T04:07:56.926Z,53.03
2018-07-02T04:08:56.675Z,53.22
2018-07-02T04:09:56.680Z,53.22
2018-07-02T04:10:56.935Z,53.03
2018-07-02T04:11:56.616Z,53.12
2018-07-02T04:12:56.670Z,52.93
2018-07-02T04:13:56.927Z,53.12
2018-07-02T04:14:56.910Z,53.03
2018-07-02T04:15:56.926Z,52.74
2018-07-02T04:16:56.935Z,53.12
2018-07-02T04:17:56.899Z,52.64
2018-07-02T04:18:56.913Z,52.83
2018-07-02T04:19:56.932Z,52.74
2018-07-02T04:20:56.440Z,53.03
2018-07-02T04:21:56.938Z,53.22
2018-07-02T04:22:56.148Z,53.12
2018-07-02T04:23:56.910Z,52.74
2018-07-02T04:24:56.988Z,52.86
2018-07-02T04:25:56.980Z,52.67
2018-07-02T04:26:56.936Z,53.03
2018-07-02T04:27:56.746Z,52.83
2018-07-02T04:28:56.441Z,53.03
2018-07-02T04:29:56.937Z,53.03
2018-07-02T04:30:56.940Z,53.03
2018-07-02T04:31:56.942Z,53.03
2018-07-02T04:32:56.917Z,53.15
2018-07-02T04:33:56.779Z,52.76
2018-07-02T04:34:56.397Z,53.24
2018-07-02T04:35:56.932Z,53.05
2018-07-02T04:36:56.943Z,53.15
2018-07-02T04:37:56.930Z,53.05
2018-07-02T04:38:56.124Z,52.95
2018-07-02T04:39:56.929Z,53.15
2018-07-02T04:40:56.967Z,53.05
2018-07-02T04:41:56.941Z,52.95
2018-07-02T04:42:56.940Z,52.95
2018-07-02T04:43:57.096Z,52.95
2018-07-02T04:44:56.447Z,52.67
2018-07-02T04:45:56.625Z,53.05
2018-07-02T04:46:56.933Z,53.05
2018-07-02T04:47:56.942Z,52.86
2018-07-02T04:48:56.898Z,53.15
2018-07-02T04:49:56.444Z,52.57
2018-07-02T04:50:56.905Z,52.95
2018-07-02T04:51:56.891Z,52.86
2018-07-02T04:52:56.893Z,52.86
2018-07-02T04:53:56.899Z,52.86
2018-07-02T04:54:59.010Z,52.95
2018-07-02T04:55:56.472Z,52.57
2018-07-02T04:56:56.447Z,52.76
2018-07-02T04:57:56.902Z,52.48
2018-07-02T04:58:56.995Z,52.67
2018-07-02T04:59:56.446Z,52.00
2018-07-02T05:00:56.951Z,52.28
2018-07-02T05:01:56.440Z,52.22
2018-07-02T05:02:56.446Z,52.09
2018-07-02T05:03:56.590Z,51.04
2018-07-02T05:04:56.940Z,50.84
2018-07-02T05:05:56.455Z,50.94
2018-07-02T05:06:56.410Z,50.37
2018-07-02T05:07:56.909Z,50.78
2018-07-02T05:08:56.929Z,50.56
2018-07-02T05:09:56.925Z,50.39
2018-07-02T05:10:56.685Z,50.78
2018-07-02T05:11:56.946Z,51.16
2018-07-02T05:12:57.257Z,51.04
2018-07-02T05:13:57.340Z,50.68
2018-07-02T05:14:56.900Z,50.39
2018-07-02T05:15:56.948Z,50.68
2018-07-02T05:16:58.554Z,50.20
2018-07-02T05:17:56.966Z,50.20
2018-07-02T05:18:56.446Z,50.78
2018-07-02T05:19:58.969Z,50.29
2018-07-02T05:20:56.990Z,50.29
2018-07-02T05:21:57.121Z,50.68
2018-07-02T05:22:56.786Z,50.87
2018-07-02T05:23:56.991Z,50.58
2018-07-02T05:24:56.455Z,50.58
2018-07-02T05:25:56.414Z,50.32
2018-07-02T05:26:56.980Z,50.51
2018-07-02T05:27:56.677Z,50.01
2018-07-02T05:28:58.795Z,50.32
2018-07-02T05:29:56.470Z,50.32
2018-07-02T05:30:57.053Z,50.13
2018-07-02T05:31:58.508Z,49.46
2018-07-02T05:32:56.936Z,49.91
2018-07-02T05:33:56.415Z,49.62
2018-07-02T05:34:57.229Z,49.43
2018-07-02T05:35:56.454Z,49.46
2018-07-02T05:36:56.961Z,49.84
2018-07-02T05:37:56.956Z,49.65
2018-07-02T05:38:56.458Z,49.74
2018-07-02T05:39:56.969Z,49.26
2018-07-02T05:40:56.057Z,49.46
2018-07-02T05:41:56.962Z,49.65
2018-07-02T05:42:56.457Z,49.65
2018-07-02T05:43:56.935Z,49.26
2018-07-02T05:44:58.963Z,48.79
2018-07-02T05:45:57.895Z,48.88
2018-07-02T05:46:56.914Z,48.97
2018-07-02T05:47:57.119Z,49.07
2018-07-02T05:48:57.005Z,49.65
2018-07-02T05:49:56.339Z,49.55
2018-07-02T05:50:56.984Z,48.79
2018-07-02T05:51:56.912Z,48.81
2018-07-02T05:52:57.014Z,48.90
2018-07-02T05:53:56.470Z,48.90
2018-07-02T05:54:57.017Z,48.61
2018-07-02T05:55:57.380Z,48.52
2018-07-02T05:56:57.023Z,48.61
2018-07-02T05:57:56.468Z,48.52
2018-07-02T05:58:56.997Z,48.61
2018-07-02T05:59:57.015Z,48.33
2018-07-02T06:00:56.979Z,48.71
2018-07-02T06:01:56.918Z,48.23
2018-07-02T06:02:56.970Z,48.04
2018-07-02T06:03:56.925Z,48.04
2018-07-02T06:04:56.966Z,48.04
2018-07-02T06:05:56.993Z,48.33
2018-07-02T06:06:56.425Z,48.52
2018-07-02T06:07:56.768Z,48.64
2018-07-02T06:08:57.341Z,48.07
2018-07-02T06:09:56.993Z,48.45
2018-07-02T06:11:03.467Z,48.93
2018-07-02T06:11:56.752Z,48.35
2018-07-02T06:12:56.423Z,48.64
2018-07-02T06:13:56.285Z,48.35
2018-07-02T06:14:56.429Z,48.54
2018-07-02T06:15:55.726Z,48.25
2018-07-02T06:16:56.473Z,48.35
2018-07-02T06:17:56.152Z,47.87
2018-07-02T06:18:56.349Z,47.68
2018-07-02T06:19:56.288Z,47.39
2018-07-02T06:20:57.978Z,47.49
2018-07-02T06:21:56.032Z,47.39
2018-07-02T06:22:56.936Z,47.30
2018-07-02T06:23:56.275Z,47.10
2018-07-02T06:24:59.030Z,47.49
2018-07-02T06:25:57.060Z,47.30
2018-07-02T06:26:56.968Z,47.20
2018-07-02T06:27:57.587Z,47.10
2018-07-02T06:28:56.949Z,47.10
2018-07-02T06:29:56.932Z,47.00
2018-07-02T06:30:57.296Z,47.39
2018-07-02T06:31:58.481Z,47.49
2018-07-02T06:32:56.964Z,47.30
2018-07-02T06:33:56.935Z,47.58
2018-07-02T06:34:56.936Z,47.61
2018-07-02T06:35:56.985Z,47.03
2018-07-02T06:36:56.988Z,46.84
2018-07-02T06:37:56.473Z,46.64
2018-07-02T06:38:56.735Z,46.74
2018-07-02T06:39:56.982Z,46.74
2018-07-02T06:40:57.033Z,46.74
2018-07-02T06:41:56.989Z,46.74
2018-07-02T06:42:56.488Z,46.06
2018-07-02T06:43:57.017Z,45.99
2018-07-02T06:44:56.982Z,45.87
2018-07-02T06:45:56.734Z,45.97
2018-07-02T06:46:56.746Z,45.80
2018-07-02T06:47:57.262Z,45.90
2018-07-02T06:48:57.022Z,46.28
2018-07-02T06:49:57.035Z,45.90
2018-07-02T06:50:56.936Z,46.09
2018-07-02T06:51:56.983Z,46.86
2018-07-02T06:52:57.997Z,46.86
2018-07-02T06:53:57.043Z,46.67
2018-07-02T06:55:17.006Z,46.78
2018-07-02T06:55:56.805Z,45.99
2018-07-02T06:56:56.989Z,45.92
2018-07-02T06:57:56.030Z,46.01
2018-07-02T06:58:56.505Z,46.31
2018-07-02T06:59:57.440Z,46.31
2018-07-02T07:00:56.482Z,45.83
2018-07-02T07:01:57.037Z,45.83
2018-07-02T07:02:58.705Z,44.96
2018-07-02T07:03:57.020Z,45.05
2018-07-02T07:04:57.428Z,44.67
2018-07-02T07:05:56.992Z,44.96
2018-07-02T07:06:57.040Z,43.80
2018-07-02T07:07:57.058Z,44.28
2018-07-02T07:08:56.990Z,43.90
2018-07-02T07:09:59.925Z,44.09
2018-07-02T07:10:57.026Z,43.99
2018-07-02T07:11:56.962Z,44.19
2018-07-02T07:12:56.787Z,44.19
2018-07-02T07:13:56.446Z,43.32
2018-07-02T07:14:56.951Z,43.34
2018-07-02T07:15:56.954Z,43.73
2018-07-02T07:16:56.950Z,43.44
2018-07-02T07:17:59.034Z,43.54
2018-07-02T07:18:56.948Z,43.73
2018-07-02T07:19:57.048Z,42.86
2018-07-02T07:20:56.773Z,42.28
2018-07-02T07:21:57.504Z,42.86
2018-07-02T07:22:57.024Z,42.76
2018-07-02T07:23:56.455Z,42.86
2018-07-02T07:24:56.790Z,42.19
2018-07-02T07:25:56.956Z,42.28
2018-07-02T07:26:57.035Z,42.38
2018-07-02T07:27:56.761Z,42.28
2018-07-02T07:28:59.100Z,42.19
2018-07-02T07:29:56.540Z,42.57
2018-07-02T07:30:57.455Z,42.49
2018-07-02T07:31:56.997Z,42.69
2018-07-02T07:32:56.932Z,42.40
2018-07-02T07:33:59.798Z,42.49
2018-07-02T07:34:56.958Z,42.30
2018-07-02T07:35:56.956Z,41.92
2018-07-02T07:36:56.958Z,42.21
2018-07-02T07:37:57.054Z,42.13
2018-07-02T07:39:19.534Z,41.84
2018-07-02T07:39:58.972Z,41.27
2018-07-02T07:40:57.084Z,40.59
2018-07-02T07:42:04.829Z,40.57
2018-07-02T07:42:56.510Z,41.72
2018-07-02T07:43:57.315Z,41.63
2018-07-02T07:44:56.894Z,41.72
2018-07-02T07:45:57.547Z,41.82
2018-07-02T07:46:57.063Z,41.92
2018-07-02T07:47:56.977Z,41.34
2018-07-02T07:48:56.538Z,40.76
2018-07-02T07:49:57.043Z,40.66
2018-07-02T07:50:59.215Z,40.76
2018-07-02T07:51:56.417Z,40.88
2018-07-02T07:52:57.088Z,40.49
2018-07-02T07:53:57.025Z,40.88
2018-07-02T07:54:56.316Z,40.78
2018-07-02T07:55:57.070Z,40.59
2018-07-02T07:56:57.100Z,40.30
2018-07-02T07:57:57.514Z,40.01
2018-07-02T07:58:58.035Z,39.91
2018-07-02T07:59:57.050Z,39.24
2018-07-02T08:00:56.476Z,39.24
2018-07-02T08:01:55.125Z,39.04
2018-07-02T08:02:58.531Z,39.04
2018-07-02T08:03:56.507Z,39.24
2018-07-02T08:04:56.967Z,39.62
2018-07-02T08:05:56.338Z,39.72
2018-07-02T08:06:56.534Z,40.78
2018-07-02T08:07:56.543Z,40.78
2018-07-02T08:08:57.013Z,40.90
2018-07-02T08:09:56.520Z,39.74
2018-07-02T08:10:57.058Z,38.97
2018-07-02T08:11:56.378Z,38.68
2018-07-02T08:12:56.479Z,39.26
2018-07-02T08:13:56.862Z,39.16
2018-07-02T08:14:56.543Z,38.39
2018-07-02T08:15:56.322Z,37.71
2018-07-02T08:16:56.153Z,38.10
2018-07-02T08:17:56.377Z,38.10
2018-07-02T08:18:56.557Z,37.33
2018-07-02T08:19:56.984Z,37.71
2018-07-02T08:20:56.468Z,38.01
2018-07-02T08:21:57.757Z,38.31
2018-07-02T08:22:57.311Z,37.73
2018-07-02T08:23:59.047Z,37.15
2018-07-02T08:24:56.974Z,36.85
2018-07-02T08:25:56.835Z,36.57
2018-07-02T08:26:56.545Z,36.48
2018-07-02T08:27:56.581Z,36.67
2018-07-02T08:28:56.978Z,36.48
2018-07-02T08:29:56.247Z,35.71
2018-07-02T08:30:55.154Z,35.80
2018-07-02T08:31:56.989Z,36.38
2018-07-02T08:32:57.088Z,36.38
2018-07-02T08:33:57.017Z,35.80
2018-07-02T08:34:56.975Z,35.50
2018-07-02T08:35:57.007Z,35.80
2018-07-02T08:36:56.529Z,36.38
2018-07-02T08:37:57.028Z,35.32
2018-07-02T08:38:57.042Z,35.52
2018-07-02T08:39:56.731Z,35.90
2018-07-02T08:40:58.074Z,36.29
2018-07-02T08:41:57.600Z,36.48
2018-07-02T08:42:56.557Z,36.77
2018-07-02T08:43:57.439Z,37.15
2018-07-02T08:44:57.026Z,37.17
2018-07-02T08:45:56.728Z,36.69
2018-07-02T08:46:57.191Z,36.79
2018-07-02T08:47:57.013Z,36.69
2018-07-02T08:48:56.272Z,36.40
2018-07-02T08:49:57.035Z,36.00
2018-07-02T08:50:57.062Z,36.38
2018-07-02T08:51:56.551Z,36.38
2018-07-02T08:52:57.057Z,36.48
2018-07-02T08:53:56.957Z,35.72
2018-07-02T08:54:56.969Z,36.50
2018-07-02T08:55:59.028Z,35.53
2018-07-02T08:56:58.555Z,35.05
2018-07-02T08:57:56.521Z,34.95
2018-07-02T08:58:57.371Z,35.24
2018-07-02T08:59:56.780Z,34.86
2018-07-02T09:00:56.481Z,34.76
2018-07-02T09:01:56.525Z,35.34
2018-07-02T09:02:59.026Z,35.26
2018-07-02T09:03:56.828Z,35.14
2018-07-02T09:04:57.069Z,35.44
2018-07-02T09:05:56.531Z,35.05
2018-07-02T09:06:55.659Z,35.44
2018-07-02T09:07:59.359Z,35.63
2018-07-02T09:08:57.586Z,35.72
2018-07-02T09:09:56.497Z,35.61
2018-07-02T09:10:56.568Z,36.59
2018-07-02T09:11:59.037Z,35.44
2018-07-02T09:12:56.489Z,35.24
2018-07-02T09:13:57.537Z,35.44
2018-07-02T09:14:57.224Z,36.01
2018-07-02T09:15:59.073Z,35.45
2018-07-02T09:16:57.026Z,35.14
2018-07-02T09:17:57.451Z,35.45
2018-07-02T09:18:56.956Z,35.44
2018-07-02T09:19:57.440Z,35.74
2018-07-02T09:20:57.367Z,35.45
2018-07-02T09:21:57.052Z,35.36
2018-07-02T09:22:56.996Z,35.06
2018-07-02T09:23:57.047Z,34.68
2018-07-02T09:24:56.489Z,34.58
2018-07-02T09:25:57.009Z,34.87
2018-07-02T09:26:57.054Z,34.58
2018-07-02T09:27:55.302Z,34.48
2018-07-02T09:28:57.037Z,34.68
2018-07-02T09:29:57.059Z,34.58
2018-07-02T09:30:56.830Z,34.99
2018-07-02T09:31:56.998Z,33.91
2018-07-02T09:32:57.511Z,34.20
2018-07-02T09:33:56.504Z,34.10
2018-07-02T09:34:57.090Z,34.29
2018-07-02T09:35:58.588Z,34.10
2018-07-02T09:36:56.596Z,34.00
2018-07-02T09:37:57.060Z,33.62
2018-07-02T09:38:57.000Z,33.42
2018-07-02T09:39:56.865Z,33.23
2018-07-02T09:40:59.445Z,33.81
2018-07-02T09:41:57.042Z,33.14
2018-07-02T09:42:56.875Z,33.72
2018-07-02T09:43:56.684Z,33.62
2018-07-02T09:44:56.808Z,33.33
2018-07-02T09:45:58.461Z,33.81
2018-07-02T09:46:57.517Z,33.73
2018-07-02T09:47:57.372Z,33.81
2018-07-02T09:48:56.852Z,33.52
2018-07-02T09:49:57.367Z,34.31
2018-07-02T09:50:57.074Z,34.70
2018-07-02T09:51:56.649Z,33.84
2018-07-02T09:52:57.002Z,33.07
2018-07-02T09:53:56.602Z,33.25
2018-07-02T09:54:56.861Z,33.44
2018-07-02T09:55:57.090Z,33.15
2018-07-02T09:56:57.520Z,33.15
2018-07-02T09:57:56.590Z,33.34
2018-07-02T09:58:58.395Z,33.34
2018-07-02T09:59:57.091Z,33.54
2018-07-02T10:00:56.894Z,34.12
2018-07-02T10:02:01.103Z,34.12
2018-07-02T10:02:57.120Z,33.73
2018-07-02T10:03:56.509Z,33.83
2018-07-02T10:04:59.105Z,32.86
2018-07-02T10:05:57.548Z,32.67
2018-07-02T10:06:56.552Z,33.04
2018-07-02T10:07:57.616Z,33.23
2018-07-02T10:08:57.049Z,33.54
2018-07-02T10:09:58.183Z,33.34
2018-07-02T10:10:55.833Z,32.86
2018-07-02T10:11:57.069Z,32.86
2018-07-02T10:12:56.766Z,32.86
2018-07-02T10:13:56.830Z,32.86
2018-07-02T10:14:59.016Z,32.96
2018-07-02T10:15:59.525Z,33.34
2018-07-02T10:17:03.629Z,33.63
2018-07-02T10:17:56.929Z,33.63
2018-07-02T10:18:57.144Z,32.97
2018-07-02T10:20:11.592Z,32.59
2018-07-02T10:20:57.016Z,32.67
2018-07-02T10:22:11.635Z,33.44
2018-07-02T10:22:57.210Z,33.92
2018-07-02T10:23:57.302Z,33.94
2018-07-02T10:24:56.816Z,34.62
2018-07-02T10:25:58.043Z,33.83
2018-07-02T10:26:57.025Z,34.12
2018-07-02T10:27:59.568Z,34.52
2018-07-02T10:28:57.256Z,34.81
2018-07-02T10:30:00.605Z,34.13
2018-07-02T10:30:57.152Z,33.65
2018-07-02T10:31:57.087Z,33.84
2018-07-02T10:32:59.106Z,34.34
2018-07-02T10:33:55.622Z,34.05
2018-07-02T10:34:57.024Z,33.76
2018-07-02T10:35:56.500Z,33.37
2018-07-02T10:36:56.867Z,32.99
2018-07-02T10:37:56.522Z,32.89
2018-07-02T10:38:57.123Z,32.79
2018-07-02T10:39:57.115Z,32.21
2018-07-02T10:41:00.360Z,32.51
2018-07-02T10:41:59.229Z,31.83
2018-07-02T10:42:57.580Z,31.25
2018-07-02T10:43:59.629Z,31.23
2018-07-02T10:44:57.082Z,31.54
2018-07-02T10:45:56.875Z,31.44
2018-07-02T10:46:55.504Z,31.54
2018-07-02T10:47:57.025Z,31.34
2018-07-02T10:48:57.409Z,32.02
2018-07-02T10:49:57.799Z,32.51
2018-07-02T10:50:59.270Z,32.60
2018-07-02T10:51:58.038Z,32.60
2018-07-02T10:52:57.372Z,32.52
2018-07-02T10:53:57.128Z,31.93
2018-07-02T10:54:57.174Z,32.52
2018-07-02T10:56:18.918Z,31.93
2018-07-02T10:56:57.114Z,32.12
2018-07-02T10:57:59.087Z,32.21
2018-07-02T10:59:00.309Z,32.68
2018-07-02T10:59:57.028Z,32.49
2018-07-02T11:00:59.145Z,32.51
2018-07-02T11:01:57.085Z,31.94
2018-07-02T11:03:06.716Z,30.68
2018-07-02T11:03:57.116Z,30.47
2018-07-02T11:04:57.116Z,30.49
2018-07-02T11:05:56.695Z,30.78
2018-07-02T11:06:57.071Z,30.21
2018-07-02T11:08:01.305Z,29.73
2018-07-02T11:08:56.944Z,29.13
2018-07-02T11:09:58.051Z,29.81
2018-07-02T11:10:56.926Z,30.29
2018-07-02T11:11:57.171Z,29.83
2018-07-02T11:12:57.364Z,29.83
2018-07-02T11:13:59.117Z,29.34
2018-07-02T11:14:57.096Z,28.26
2018-07-02T11:15:56.919Z,28.75
2018-07-02T11:16:56.666Z,29.44
2018-07-02T11:17:56.600Z,29.53
2018-07-02T11:18:57.046Z,29.61
2018-07-02T11:19:57.132Z,30.02
2018-07-02T11:20:57.579Z,30.11
2018-07-02T11:21:59.159Z,30.60
2018-07-02T11:22:59.143Z,30.89
2018-07-02T11:23:57.091Z,30.89
2018-07-02T11:24:57.450Z,30.23
2018-07-02T11:25:58.882Z,29.63
2018-07-02T11:26:56.563Z,29.16
2018-07-02T11:27:58.699Z,29.24
2018-07-02T11:28:59.293Z,29.36
2018-07-02T11:29:56.528Z,29.34
2018-07-02T11:30:57.552Z,29.74
2018-07-02T11:31:57.050Z,29.74
2018-07-02T11:32:57.108Z,29.84
2018-07-02T11:33:58.051Z,29.55
2018-07-02T11:35:00.253Z,29.55
2018-07-02T11:35:57.112Z,29.84
2018-07-02T11:36:57.087Z,29.84
2018-07-02T11:37:57.456Z,29.84
2018-07-02T11:38:55.616Z,30.04
2018-07-02T11:39:57.146Z,30.52
2018-07-02T11:40:59.131Z,30.63
2018-07-02T11:41:57.773Z,30.63
2018-07-02T11:42:57.026Z,31.31
2018-07-02T11:43:59.549Z,31.13
2018-07-02T11:44:58.024Z,31.62
2018-07-02T11:45:57.057Z,30.84
2018-07-02T11:46:56.912Z,30.54
2018-07-02T11:47:56.768Z,30.24
2018-07-02T11:48:57.060Z,30.73
2018-07-02T11:49:57.717Z,30.44
2018-07-02T11:50:57.055Z,30.15
2018-07-02T11:51:57.486Z,29.97
2018-07-02T11:52:57.059Z,29.88
2018-07-02T11:53:57.560Z,29.38
2018-07-02T11:54:58.325Z,29.19
2018-07-02T11:55:57.093Z,29.48
2018-07-02T11:57:03.622Z,29.58
2018-07-02T11:58:03.636Z,30.45
2018-07-02T11:59:03.613Z,30.37
2018-07-02T11:59:59.435Z,29.98
2018-07-02T12:01:05.247Z,29.60
2018-07-02T12:01:57.059Z,29.40
2018-07-02T12:02:57.802Z,29.28
2018-07-02T12:03:57.180Z,29.79
2018-07-02T12:04:57.622Z,29.50
2018-07-02T12:05:57.082Z,29.11
2018-07-02T12:06:57.008Z,29.11
2018-07-02T12:07:58.065Z,29.30
2018-07-02T12:08:57.078Z,29.60
2018-07-02T12:09:57.111Z,29.61
2018-07-02T12:11:06.311Z,29.30
2018-07-02T12:12:04.614Z,29.60
2018-07-02T12:12:59.573Z,29.22
2018-07-02T12:13:57.516Z,29.51
2018-07-02T12:14:59.130Z,29.21
2018-07-02T12:16:01.206Z,29.30
2018-07-02T12:16:56.683Z,29.60
2018-07-02T12:18:03.676Z,29.12
2018-07-02T12:18:57.427Z,28.34
2018-07-02T12:19:58.866Z,27.76
2018-07-02T12:20:57.074Z,28.15
2018-07-02T12:21:57.636Z,27.57
2018-07-02T12:22:57.413Z,27.58
2018-07-02T12:23:57.628Z,26.90
2018-07-02T12:24:57.575Z,27.01
2018-07-02T12:26:12.633Z,27.39
2018-07-02T12:26:58.093Z,27.29
2018-07-02T12:27:58.780Z,27.48
2018-07-02T12:28:59.664Z,27.19
2018-07-02T12:29:56.631Z,27.97
2018-07-02T12:30:58.030Z,27.40
2018-07-02T12:31:57.577Z,27.31
2018-07-02T12:32:57.393Z,27.01
2018-07-02T12:33:58.038Z,26.62
2018-07-02T12:35:00.608Z,26.33
2018-07-02T12:35:57.389Z,26.54
2018-07-02T12:36:57.678Z,27.29
2018-07-02T12:37:57.935Z,26.90
2018-07-02T12:38:57.676Z,27.28
2018-07-02T12:39:59.343Z,27.48
2018-07-02T12:40:59.624Z,27.22
2018-07-02T12:41:57.654Z,27.03
2018-07-02T12:42:57.714Z,26.64
2018-07-02T12:43:58.666Z,26.64
2018-07-02T12:44:59.588Z,26.75
2018-07-02T12:45:59.701Z,26.37
2018-07-02T12:46:57.968Z,25.89
2018-07-02T12:47:57.604Z,25.59
2018-07-02T12:48:57.483Z,25.41
2018-07-02T12:49:59.760Z,25.52
2018-07-02T12:51:00.360Z,24.74
2018-07-02T12:51:57.140Z,25.03
2018-07-02T12:52:57.260Z,24.74